sensor_id;sensor_type;location;lat;lon;timestamp;pressure;altitude;pressure_sealevel;temperature;humidity
61742;BME280;47650;49.848;9.620;2023-02-01T00:01:51;100023.16;;;5.45;85.74
61742;BME280;47650;49.848;9.620;2023-02-01T00:04:36;100034.81;;;5.41;85.24
61742;BME280;47650;49.848;9.620;2023-02-01T00:07:12;100032.50;;;5.50;84.54
61742;BME280;47650;49.848;9.620;2023-02-01T00:09:40;100039.59;;;5.62;84.31
61742;BME280;47650;49.848;9.620;2023-02-01T00:12:11;100035.47;;;5.58;84.52
61742;BME280;47650;49.848;9.620;2023-02-01T00:14:43;100044.00;;;5.49;83.77
61742;BME280;47650;49.848;9.620;2023-02-01T00:17:12;100035.81;;;5.66;83.40
61742;BME280;47650;49.848;9.620;2023-02-01T00:19:38;100047.59;;;5.73;83.43
61742;BME280;47650;49.848;9.620;2023-02-01T00:22:05;99979.97;;;5.22;83.27
61742;BME280;47650;49.848;9.620;2023-02-01T00:24:34;100058.56;;;5.93;82.27
61742;BME280;47650;49.848;9.620;2023-02-01T00:27:01;100035.19;;;5.75;82.54
61742;BME280;47650;49.848;9.620;2023-02-01T00:29:26;99983.59;;;5.60;82.16
61742;BME280;47650;49.848;9.620;2023-02-01T00:31:52;100034.97;;;5.78;81.64
61742;BME280;47650;49.848;9.620;2023-02-01T00:34:17;100029.53;;;5.81;81.01
61742;BME280;47650;49.848;9.620;2023-02-01T00:36:47;100011.63;;;5.87;80.18
61742;BME280;47650;49.848;9.620;2023-02-01T00:39:17;100026.16;;;6.05;80.48
61742;BME280;47650;49.848;9.620;2023-02-01T00:41:44;99988.66;;;5.63;79.83
61742;BME280;47650;49.848;9.620;2023-02-01T00:44:16;99963.28;;;5.36;80.09
61742;BME280;47650;49.848;9.620;2023-02-01T00:46:44;100027.66;;;6.09;79.53
61742;BME280;47650;49.848;9.620;2023-02-01T00:49:10;99909.63;;;5.00;80.16
61742;BME280;47650;49.848;9.620;2023-02-01T00:51:37;100038.03;;;5.85;79.97
61742;BME280;47650;49.848;9.620;2023-02-01T00:54:08;100008.38;;;5.96;80.08
61742;BME280;47650;49.848;9.620;2023-02-01T00:56:36;100036.88;;;6.28;79.64
61742;BME280;47650;49.848;9.620;2023-02-01T00:59:18;100023.09;;;5.98;79.89
61742;BME280;47650;49.848;9.620;2023-02-01T01:01:44;99986.34;;;5.45;80.08
61742;BME280;47650;49.848;9.620;2023-02-01T01:04:17;99953.28;;;5.41;80.01
61742;BME280;47650;49.848;9.620;2023-02-01T01:06:47;100013.91;;;5.65;81.22
61742;BME280;47650;49.848;9.620;2023-02-01T01:09:20;100017.84;;;5.98;80.16
61742;BME280;47650;49.848;9.620;2023-02-01T01:11:45;100026.88;;;5.81;80.34
61742;BME280;47650;49.848;9.620;2023-02-01T01:14:11;99949.44;;;5.73;79.35
61742;BME280;47650;49.848;9.620;2023-02-01T01:16:45;100011.19;;;5.80;79.81
61742;BME280;47650;49.848;9.620;2023-02-01T01:19:11;99999.72;;;5.94;79.89
61742;BME280;47650;49.848;9.620;2023-02-01T01:21:45;100005.91;;;5.67;79.41
61742;BME280;47650;49.848;9.620;2023-02-01T01:24:16;100029.34;;;5.97;79.35
61742;BME280;47650;49.848;9.620;2023-02-01T01:26:56;100010.56;;;5.76;79.63
61742;BME280;47650;49.848;9.620;2023-02-01T01:29:22;100023.19;;;5.84;79.33
61742;BME280;47650;49.848;9.620;2023-02-01T01:31:51;100018.38;;;6.03;78.32
61742;BME280;47650;49.848;9.620;2023-02-01T01:34:19;100032.88;;;5.83;79.23
61742;BME280;47650;49.848;9.620;2023-02-01T01:36:45;100029.91;;;5.88;79.37
61742;BME280;47650;49.848;9.620;2023-02-01T01:39:14;100010.25;;;5.94;80.21
61742;BME280;47650;49.848;9.620;2023-02-01T01:41:47;100022.44;;;5.69;80.34
61742;BME280;47650;49.848;9.620;2023-02-01T01:47:26;100020.22;;;5.63;80.71
61742;BME280;47650;49.848;9.620;2023-02-01T01:50:10;99988.66;;;5.63;81.31
61742;BME280;47650;49.848;9.620;2023-02-01T01:52:48;99961.84;;;5.58;80.36
61742;BME280;47650;49.848;9.620;2023-02-01T01:55:18;99997.66;;;5.99;79.55
61742;BME280;47650;49.848;9.620;2023-02-01T01:57:54;99951.09;;;5.35;79.50
61742;BME280;47650;49.848;9.620;2023-02-01T02:00:21;99946.59;;;5.63;78.63
61742;BME280;47650;49.848;9.620;2023-02-01T02:02:53;99985.53;;;5.96;77.68
61742;BME280;47650;49.848;9.620;2023-02-01T02:05:21;99990.88;;;5.95;78.63
61742;BME280;47650;49.848;9.620;2023-02-01T02:07:50;99995.81;;;5.74;78.38
61742;BME280;47650;49.848;9.620;2023-02-01T02:10:20;99977.69;;;5.95;77.40
61742;BME280;47650;49.848;9.620;2023-02-01T02:12:48;99977.09;;;5.78;77.56
61742;BME280;47650;49.848;9.620;2023-02-01T02:15:15;99945.84;;;5.99;77.73
61742;BME280;47650;49.848;9.620;2023-02-01T02:17:52;99973.31;;;5.95;77.36
61742;BME280;47650;49.848;9.620;2023-02-01T02:20:45;99901.09;;;5.99;75.53
61742;BME280;47650;49.848;9.620;2023-02-01T02:32:44;99970.38;;;6.00;76.73
61742;BME280;47650;49.848;9.620;2023-02-01T02:35:32;99960.56;;;6.02;76.82
61742;BME280;47650;49.848;9.620;2023-02-01T02:38:16;99952.34;;;6.07;77.39
61742;BME280;47650;49.848;9.620;2023-02-01T02:41:18;99952.34;;;5.55;80.51
61742;BME280;47650;49.848;9.620;2023-02-01T02:44:31;99895.44;;;5.28;81.48
61742;BME280;47650;49.848;9.620;2023-02-01T02:47:29;99897.34;;;5.39;81.79
61742;BME280;47650;49.848;9.620;2023-02-01T02:50:46;99902.28;;;5.57;81.74
61742;BME280;47650;49.848;9.620;2023-02-01T02:53:37;99953.09;;;5.44;83.86
61742;BME280;47650;49.848;9.620;2023-02-01T02:56:32;99949.75;;;5.68;84.00
61742;BME280;47650;49.848;9.620;2023-02-01T02:59:20;99942.69;;;5.56;84.74
61742;BME280;47650;49.848;9.620;2023-02-01T03:02:07;99917.44;;;5.53;84.38
61742;BME280;47650;49.848;9.620;2023-02-01T03:05:01;99945.19;;;5.44;86.30
61742;BME280;47650;49.848;9.620;2023-02-01T03:07:48;99950.34;;;5.46;86.48
61742;BME280;47650;49.848;9.620;2023-02-01T03:10:32;99952.00;;;5.21;85.29
61742;BME280;47650;49.848;9.620;2023-02-01T03:13:46;99952.22;;;5.18;84.88
61742;BME280;47650;49.848;9.620;2023-02-01T03:16:20;99957.63;;;5.30;85.87
61742;BME280;47650;49.848;9.620;2023-02-01T03:19:01;99958.31;;;5.19;85.58
61742;BME280;47650;49.848;9.620;2023-02-01T03:24:21;99954.25;;;5.40;85.85
61742;BME280;47650;49.848;9.620;2023-02-01T03:29:56;99955.84;;;5.03;85.54
61742;BME280;47650;49.848;9.620;2023-02-01T03:32:40;99931.72;;;5.11;85.92
61742;BME280;47650;49.848;9.620;2023-02-01T03:38:44;99944.81;;;4.98;85.90
61742;BME280;47650;49.848;9.620;2023-02-01T03:41:18;99929.91;;;5.24;86.17
61742;BME280;47650;49.848;9.620;2023-02-01T03:44:16;99901.25;;;4.81;85.67
61742;BME280;47650;49.848;9.620;2023-02-01T03:47:00;99937.75;;;4.98;86.34
61742;BME280;47650;49.848;9.620;2023-02-01T03:49:34;99942.59;;;4.92;85.67
61742;BME280;47650;49.848;9.620;2023-02-01T03:52:17;99919.44;;;4.84;85.30
61742;BME280;47650;49.848;9.620;2023-02-01T03:54:44;99903.13;;;4.79;84.84
61742;BME280;47650;49.848;9.620;2023-02-01T03:57:14;99915.41;;;5.18;83.98
61742;BME280;47650;49.848;9.620;2023-02-01T03:59:44;99922.16;;;4.82;83.63
61742;BME280;47650;49.848;9.620;2023-02-01T04:02:10;99910.56;;;4.99;83.13
61742;BME280;47650;49.848;9.620;2023-02-01T04:04:36;99871.56;;;4.53;83.14
61742;BME280;47650;49.848;9.620;2023-02-01T04:07:01;99915.47;;;4.91;82.79
61742;BME280;47650;49.848;9.620;2023-02-01T04:09:29;99896.44;;;4.87;82.89
61742;BME280;47650;49.848;9.620;2023-02-01T04:11:56;99908.16;;;5.09;81.80
61742;BME280;47650;49.848;9.620;2023-02-01T04:14:27;99881.63;;;4.86;81.53
61742;BME280;47650;49.848;9.620;2023-02-01T04:16:56;99912.16;;;5.15;81.41
61742;BME280;47650;49.848;9.620;2023-02-01T04:19:21;99905.63;;;5.20;80.48
61742;BME280;47650;49.848;9.620;2023-02-01T04:21:47;99908.25;;;5.07;81.53
61742;BME280;47650;49.848;9.620;2023-02-01T04:24:15;99904.69;;;5.34;81.11
61742;BME280;47650;49.848;9.620;2023-02-01T04:26:45;99885.34;;;5.09;80.90
61742;BME280;47650;49.848;9.620;2023-02-01T04:29:11;99900.47;;;5.06;81.10
61742;BME280;47650;49.848;9.620;2023-02-01T04:31:36;99900.47;;;5.06;80.18
61742;BME280;47650;49.848;9.620;2023-02-01T04:34:04;99813.56;;;4.43;81.42
61742;BME280;47650;49.848;9.620;2023-02-01T04:36:37;99893.84;;;5.13;80.32
61742;BME280;47650;49.848;9.620;2023-02-01T04:39:04;99899.44;;;5.21;79.99
61742;BME280;47650;49.848;9.620;2023-02-01T04:41:31;99876.38;;;4.99;80.15
61742;BME280;47650;49.848;9.620;2023-02-01T04:43:57;99866.41;;;5.04;79.52
61742;BME280;47650;49.848;9.620;2023-02-01T04:46:22;99901.66;;;5.40;78.21
61742;BME280;47650;49.848;9.620;2023-02-01T04:48:50;99894.63;;;5.28;79.34
61742;BME280;47650;49.848;9.620;2023-02-01T04:51:22;99899.63;;;5.31;79.38
61742;BME280;47650;49.848;9.620;2023-02-01T04:54:00;99910.38;;;5.28;80.18
61742;BME280;47650;49.848;9.620;2023-02-01T04:56:28;99884.41;;;5.11;80.08
61742;BME280;47650;49.848;9.620;2023-02-01T04:58:55;99904.28;;;5.40;80.10
61742;BME280;47650;49.848;9.620;2023-02-01T05:01:22;99900.38;;;5.20;80.35
61742;BME280;47650;49.848;9.620;2023-02-01T05:03:50;99884.16;;;5.01;81.21
61742;BME280;47650;49.848;9.620;2023-02-01T05:06:21;99901.09;;;5.09;80.76
61742;BME280;47650;49.848;9.620;2023-02-01T05:08:53;99876.00;;;5.18;80.62
61742;BME280;47650;49.848;9.620;2023-02-01T05:11:19;99887.88;;;5.37;80.15
61742;BME280;47650;49.848;9.620;2023-02-01T05:14:05;99861.38;;;5.14;79.88
61742;BME280;47650;49.848;9.620;2023-02-01T05:16:32;99870.78;;;4.91;80.56
61742;BME280;47650;49.848;9.620;2023-02-01T05:18:58;99907.66;;;5.42;79.48
61742;BME280;47650;49.848;9.620;2023-02-01T05:21:29;99834.94;;;4.64;80.56
61742;BME280;47650;49.848;9.620;2023-02-01T05:23:55;99913.13;;;5.39;80.04
61742;BME280;47650;49.848;9.620;2023-02-01T05:26:46;99876.41;;;5.38;80.30
61742;BME280;47650;49.848;9.620;2023-02-01T05:29:12;99894.19;;;5.34;80.11
61742;BME280;47650;49.848;9.620;2023-02-01T05:31:45;99893.13;;;5.62;79.36
61742;BME280;47650;49.848;9.620;2023-02-01T05:34:12;99894.50;;;5.42;80.19
61742;BME280;47650;49.848;9.620;2023-02-01T05:36:40;99890.41;;;5.38;80.39
61742;BME280;47650;49.848;9.620;2023-02-01T05:39:07;99865.06;;;5.37;80.25
61742;BME280;47650;49.848;9.620;2023-02-01T05:41:33;99851.38;;;5.58;79.20
61742;BME280;47650;49.848;9.620;2023-02-01T05:44:05;99883.44;;;5.50;80.78
61742;BME280;47650;49.848;9.620;2023-02-01T05:46:38;99863.06;;;5.02;80.64
61742;BME280;47650;49.848;9.620;2023-02-01T05:49:09;99882.28;;;5.41;80.14
61742;BME280;47650;49.848;9.620;2023-02-01T05:51:35;99890.31;;;5.40;81.09
61742;BME280;47650;49.848;9.620;2023-02-01T05:54:10;99874.22;;;5.32;81.41
61742;BME280;47650;49.848;9.620;2023-02-01T05:56:36;99879.25;;;5.22;81.39
61742;BME280;47650;49.848;9.620;2023-02-01T05:59:03;99892.28;;;5.23;82.14
61742;BME280;47650;49.848;9.620;2023-02-01T06:01:37;99798.16;;;4.77;81.31
61742;BME280;47650;49.848;9.620;2023-02-01T06:04:05;99885.56;;;5.32;80.99
61742;BME280;47650;49.848;9.620;2023-02-01T06:06:32;99888.50;;;5.40;80.35
61742;BME280;47650;49.848;9.620;2023-02-01T06:09:00;99883.88;;;5.44;80.80
61742;BME280;47650;49.848;9.620;2023-02-01T06:11:32;99839.91;;;4.95;80.89
61742;BME280;47650;49.848;9.620;2023-02-01T06:14:08;99889.34;;;5.54;80.71
61742;BME280;47650;49.848;9.620;2023-02-01T06:16:34;99843.94;;;5.26;79.64
61742;BME280;47650;49.848;9.620;2023-02-01T06:18:59;99869.97;;;5.55;79.32
61742;BME280;47650;49.848;9.620;2023-02-01T06:21:35;99817.31;;;5.18;80.21
61742;BME280;47650;49.848;9.620;2023-02-01T06:24:01;99875.88;;;5.33;80.32
61742;BME280;47650;49.848;9.620;2023-02-01T06:26:28;99878.94;;;5.39;79.93
61742;BME280;47650;49.848;9.620;2023-02-01T06:28:55;99853.59;;;5.13;79.93
61742;BME280;47650;49.848;9.620;2023-02-01T06:31:21;99861.56;;;5.50;79.64
61742;BME280;47650;49.848;9.620;2023-02-01T06:33:48;99742.59;;;4.58;79.55
61742;BME280;47650;49.848;9.620;2023-02-01T06:36:20;99831.59;;;5.14;79.46
61742;BME280;47650;49.848;9.620;2023-02-01T06:38:48;99762.56;;;4.86;79.47
61742;BME280;47650;49.848;9.620;2023-02-01T06:41:19;99861.56;;;5.62;79.54
61742;BME280;47650;49.848;9.620;2023-02-01T06:43:51;99862.47;;;5.74;79.18
61742;BME280;47650;49.848;9.620;2023-02-01T06:46:20;99882.00;;;5.33;79.66
61742;BME280;47650;49.848;9.620;2023-02-01T06:48:48;99851.78;;;5.52;79.02
61742;BME280;47650;49.848;9.620;2023-02-01T06:51:24;99870.84;;;5.42;79.00
61742;BME280;47650;49.848;9.620;2023-02-01T06:53:57;99879.66;;;5.41;79.48
61742;BME280;47650;49.848;9.620;2023-02-01T06:56:36;99885.75;;;5.29;79.20
61742;BME280;47650;49.848;9.620;2023-02-01T06:59:07;99886.63;;;5.42;78.44
61742;BME280;47650;49.848;9.620;2023-02-01T07:01:33;99828.44;;;5.08;78.78
61742;BME280;47650;49.848;9.620;2023-02-01T07:04:11;99888.84;;;5.49;78.38
61742;BME280;47650;49.848;9.620;2023-02-01T07:06:44;99814.69;;;4.92;78.69
61742;BME280;47650;49.848;9.620;2023-02-01T07:09:11;99877.44;;;5.09;78.36
61742;BME280;47650;49.848;9.620;2023-02-01T07:11:44;99798.50;;;4.73;77.89
61742;BME280;47650;49.848;9.620;2023-02-01T07:14:10;99914.06;;;5.38;78.49
61742;BME280;47650;49.848;9.620;2023-02-01T07:16:43;99892.28;;;5.23;79.16
61742;BME280;47650;49.848;9.620;2023-02-01T07:19:10;99920.47;;;5.34;78.82
61742;BME280;47650;49.848;9.620;2023-02-01T07:21:36;99876.09;;;5.30;78.49
61742;BME280;47650;49.848;9.620;2023-02-01T07:24:04;99902.03;;;5.86;78.03
61742;BME280;47650;49.848;9.620;2023-02-01T07:26:30;99863.06;;;5.28;77.61
61742;BME280;47650;49.848;9.620;2023-02-01T07:28:58;99915.88;;;5.51;78.12
61742;BME280;47650;49.848;9.620;2023-02-01T07:31:32;99890.47;;;5.75;76.95
61742;BME280;47650;49.848;9.620;2023-02-01T07:33:58;99879.53;;;5.69;76.26
61742;BME280;47650;49.848;9.620;2023-02-01T07:36:25;99785.88;;;5.29;74.74
61742;BME280;47650;49.848;9.620;2023-02-01T07:38:52;99848.63;;;5.59;73.26
61742;BME280;47650;49.848;9.620;2023-02-01T07:41:17;99885.31;;;5.99;74.14
61742;BME280;47650;49.848;9.620;2023-02-01T07:43:46;99896.06;;;5.83;74.18
61742;BME280;47650;49.848;9.620;2023-02-01T07:46:13;99885.53;;;5.96;74.42
61742;BME280;47650;49.848;9.620;2023-02-01T07:48:42;99893.72;;;5.92;73.99
61742;BME280;47650;49.848;9.620;2023-02-01T07:51:16;99907.19;;;6.00;73.40
61742;BME280;47650;49.848;9.620;2023-02-01T07:53:44;99889.63;;;5.88;74.21
61742;BME280;47650;49.848;9.620;2023-02-01T07:56:20;99882.97;;;5.95;73.69
61742;BME280;47650;49.848;9.620;2023-02-01T07:58:52;99849.63;;;5.82;73.47
61742;BME280;47650;49.848;9.620;2023-02-01T08:01:24;99864.03;;;5.90;72.51
61742;BME280;47650;49.848;9.620;2023-02-01T08:03:53;99868.81;;;6.21;71.73
61742;BME280;47650;49.848;9.620;2023-02-01T08:06:19;99872.19;;;6.24;70.77
61742;BME280;47650;49.848;9.620;2023-02-01T08:08:45;99826.56;;;6.47;68.42
61742;BME280;47650;49.848;9.620;2023-02-01T08:11:12;99894.19;;;6.47;68.41
61742;BME280;47650;49.848;9.620;2023-02-01T08:13:38;99849.78;;;6.42;68.96
61742;BME280;47650;49.848;9.620;2023-02-01T08:16:05;99804.84;;;6.08;68.86
61742;BME280;47650;49.848;9.620;2023-02-01T08:18:34;99912.09;;;6.78;68.65
61742;BME280;47650;49.848;9.620;2023-02-01T08:21:13;99905.69;;;6.70;69.52
61742;BME280;47650;49.848;9.620;2023-02-01T08:23:44;99912.72;;;6.93;67.71
61742;BME280;47650;49.848;9.620;2023-02-01T08:26:17;99913.81;;;6.67;68.54
61742;BME280;47650;49.848;9.620;2023-02-01T08:28:46;99895.41;;;6.78;66.72
61742;BME280;47650;49.848;9.620;2023-02-01T08:31:14;99904.28;;;6.29;68.15
61742;BME280;47650;49.848;9.620;2023-02-01T08:33:49;99898.94;;;6.66;67.25
61742;BME280;47650;49.848;9.620;2023-02-01T08:36:16;99922.50;;;6.80;67.42
61742;BME280;47650;49.848;9.620;2023-02-01T08:38:41;99908.00;;;6.13;68.83
61742;BME280;47650;49.848;9.620;2023-02-01T08:41:26;99908.63;;;6.17;68.80
61742;BME280;47650;49.848;9.620;2023-02-01T08:43:52;99925.53;;;6.63;68.40
61742;BME280;47650;49.848;9.620;2023-02-01T08:46:19;99902.94;;;6.23;69.52
61742;BME280;47650;49.848;9.620;2023-02-01T08:48:51;99924.97;;;6.94;67.71
61742;BME280;47650;49.848;9.620;2023-02-01T08:51:18;99925.88;;;6.82;67.71
61742;BME280;47650;49.848;9.620;2023-02-01T08:53:44;99885.97;;;6.87;67.31
61742;BME280;47650;49.848;9.620;2023-02-01T08:56:18;99918.88;;;6.70;68.68
61742;BME280;47650;49.848;9.620;2023-02-01T08:58:51;99827.94;;;5.92;68.83
61742;BME280;47650;49.848;9.620;2023-02-01T09:01:23;99897.84;;;6.33;69.01
61742;BME280;47650;49.848;9.620;2023-02-01T09:03:49;99916.69;;;6.64;68.98
61742;BME280;47650;49.848;9.620;2023-02-01T09:06:16;99841.69;;;6.08;68.40
61742;BME280;47650;49.848;9.620;2023-02-01T09:08:42;99925.91;;;6.69;68.58
61742;BME280;47650;49.848;9.620;2023-02-01T09:11:12;99927.41;;;6.85;67.73
61742;BME280;47650;49.848;9.620;2023-02-01T09:13:46;99949.09;;;6.77;67.71
61742;BME280;47650;49.848;9.620;2023-02-01T09:16:12;99941.59;;;6.95;67.22
61742;BME280;47650;49.848;9.620;2023-02-01T09:18:37;99951.00;;;6.75;67.41
61742;BME280;47650;49.848;9.620;2023-02-01T09:21:06;99939.06;;;6.58;66.85
61742;BME280;47650;49.848;9.620;2023-02-01T09:23:33;99906.53;;;6.70;65.81
61742;BME280;47650;49.848;9.620;2023-02-01T09:26:02;99912.09;;;7.25;64.14
61742;BME280;47650;49.848;9.620;2023-02-01T09:28:28;99940.78;;;7.41;63.73
61742;BME280;47650;49.848;9.620;2023-02-01T09:30:57;99947.75;;;7.53;62.64
61742;BME280;47650;49.848;9.620;2023-02-01T09:33:24;99949.16;;;7.35;62.75
61742;BME280;47650;49.848;9.620;2023-02-01T09:36:02;99960.44;;;7.02;64.14
61742;BME280;47650;49.848;9.620;2023-02-01T09:38:29;99835.63;;;6.43;62.84
61742;BME280;47650;49.848;9.620;2023-02-01T09:40:58;99946.88;;;6.95;63.47
61742;BME280;47650;49.848;9.620;2023-02-01T09:43:35;99959.81;;;7.33;62.18
61742;BME280;47650;49.848;9.620;2023-02-01T09:46:27;99983.13;;;7.04;62.75
61742;BME280;47650;49.848;9.620;2023-02-01T09:48:59;99992.25;;;6.87;63.36
61742;BME280;47650;49.848;9.620;2023-02-01T09:51:31;99967.19;;;6.82;61.94
61742;BME280;47650;49.848;9.620;2023-02-01T09:54:08;99933.06;;;6.80;61.39
61742;BME280;47650;49.848;9.620;2023-02-01T09:56:49;99991.78;;;6.93;62.13
61742;BME280;47650;49.848;9.620;2023-02-01T09:59:23;99997.34;;;7.02;62.27
61742;BME280;47650;49.848;9.620;2023-02-01T10:01:52;99987.44;;;6.81;62.85
61742;BME280;47650;49.848;9.620;2023-02-01T10:04:18;99933.38;;;7.00;61.62
61742;BME280;47650;49.848;9.620;2023-02-01T10:09:42;99973.03;;;6.74;62.72
61742;BME280;47650;49.848;9.620;2023-02-01T10:15:02;99997.06;;;7.18;61.86
61742;BME280;47650;49.848;9.620;2023-02-01T10:20:56;99960.88;;;6.95;61.52
61742;BME280;47650;49.848;9.620;2023-02-01T10:26:33;99989.59;;;7.47;60.16
61742;BME280;47650;49.848;9.620;2023-02-01T10:29:03;99983.97;;;7.16;61.64
61742;BME280;47650;49.848;9.620;2023-02-01T10:31:33;99886.91;;;6.50;61.01
61742;BME280;47650;49.848;9.620;2023-02-01T10:34:04;99985.19;;;7.12;61.09
61742;BME280;47650;49.848;9.620;2023-02-01T10:36:52;99970.22;;;6.88;61.22
61742;BME280;47650;49.848;9.620;2023-02-01T10:39:18;99952.53;;;7.02;61.10
61742;BME280;47650;49.848;9.620;2023-02-01T10:41:44;99968.78;;;6.95;61.29
61742;BME280;47650;49.848;9.620;2023-02-01T10:44:14;99931.03;;;6.59;61.23
61742;BME280;47650;49.848;9.620;2023-02-01T10:46:42;99802.59;;;5.28;61.18
61742;BME280;47650;49.848;9.620;2023-02-01T10:49:13;99971.19;;;6.87;60.81
61742;BME280;47650;49.848;9.620;2023-02-01T10:51:45;99967.00;;;7.20;59.93
61742;BME280;47650;49.848;9.620;2023-02-01T10:54:31;99943.28;;;8.67;55.72
61742;BME280;47650;49.848;9.620;2023-02-01T10:56:59;99920.19;;;8.69;54.75
61742;BME280;47650;49.848;9.620;2023-02-01T10:59:25;99936.03;;;7.69;58.00
61742;BME280;47650;49.848;9.620;2023-02-01T11:01:59;99942.03;;;7.60;57.65
61742;BME280;47650;49.848;9.620;2023-02-01T11:04:26;99923.41;;;7.61;57.57
61742;BME280;47650;49.848;9.620;2023-02-01T11:07:16;99940.47;;;8.14;57.32
61742;BME280;47650;49.848;9.620;2023-02-01T11:09:50;99932.38;;;8.38;55.69
61742;BME280;47650;49.848;9.620;2023-02-01T11:12:32;99924.38;;;9.25;52.34
61742;BME280;47650;49.848;9.620;2023-02-01T11:15:01;99909.81;;;9.92;50.74
61742;BME280;47650;49.848;9.620;2023-02-01T11:17:35;99926.19;;;9.25;51.76
61742;BME280;47650;49.848;9.620;2023-02-01T11:20:05;99911.44;;;10.94;47.80
61742;BME280;47650;49.848;9.620;2023-02-01T11:22:31;99793.41;;;9.40;50.01
61742;BME280;47650;49.848;9.620;2023-02-01T11:24:58;99936.13;;;9.11;52.04
61742;BME280;47650;49.848;9.620;2023-02-01T11:27:25;99928.88;;;10.17;50.17
61742;BME280;47650;49.848;9.620;2023-02-01T11:30:01;99932.31;;;9.25;50.42
61742;BME280;47650;49.848;9.620;2023-02-01T11:32:29;99899.59;;;9.78;49.78
61742;BME280;47650;49.848;9.620;2023-02-01T11:35:02;99907.13;;;10.23;48.97
61742;BME280;47650;49.848;9.620;2023-02-01T11:37:36;99928.91;;;9.55;50.38
61742;BME280;47650;49.848;9.620;2023-02-01T11:40:26;99897.81;;;8.29;52.08
61742;BME280;47650;49.848;9.620;2023-02-01T11:45:32;99917.88;;;8.09;54.21
61742;BME280;47650;49.848;9.620;2023-02-01T11:48:08;99953.28;;;7.73;54.44
61742;BME280;47650;49.848;9.620;2023-02-01T11:59:37;99910.91;;;7.29;56.44
61742;BME280;47650;49.848;9.620;2023-02-01T12:14:09;99890.03;;;7.26;56.87
61742;BME280;47650;49.848;9.620;2023-02-01T12:20:22;99733.97;;;6.87;55.15
61742;BME280;47650;49.848;9.620;2023-02-01T12:29:24;99891.50;;;7.87;54.92
61742;BME280;47650;49.848;9.620;2023-02-01T12:32:20;99885.25;;;8.22;54.23
61742;BME280;47650;49.848;9.620;2023-02-01T12:35:13;99891.28;;;7.90;54.85
61742;BME280;47650;49.848;9.620;2023-02-01T12:40:46;99849.97;;;8.55;52.39
61742;BME280;47650;49.848;9.620;2023-02-01T12:43:18;99853.56;;;8.87;51.91
61742;BME280;47650;49.848;9.620;2023-02-01T12:46:02;99852.53;;;8.45;52.91
61742;BME280;47650;49.848;9.620;2023-02-01T12:48:51;99781.16;;;8.13;53.03
61742;BME280;47650;49.848;9.620;2023-02-01T12:51:26;99851.47;;;9.11;51.91
61742;BME280;47650;49.848;9.620;2023-02-01T12:53:53;99869.22;;;8.35;53.60
61742;BME280;47650;49.848;9.620;2023-02-01T12:56:35;99858.66;;;8.35;53.57
61742;BME280;47650;49.848;9.620;2023-02-01T12:59:24;99876.53;;;7.65;56.12
61742;BME280;47650;49.848;9.620;2023-02-01T13:02:19;99869.06;;;7.47;56.59
61742;BME280;47650;49.848;9.620;2023-02-01T13:04:57;99864.28;;;7.52;56.37
61742;BME280;47650;49.848;9.620;2023-02-01T13:07:49;99810.91;;;7.60;56.36
61742;BME280;47650;49.848;9.620;2023-02-01T13:13:32;99852.78;;;7.53;56.44
61742;BME280;47650;49.848;9.620;2023-02-01T13:16:28;99849.19;;;7.77;55.88
61742;BME280;47650;49.848;9.620;2023-02-01T13:19:25;99827.72;;;7.48;56.68
61742;BME280;47650;49.848;9.620;2023-02-01T13:22:00;99819.88;;;7.12;57.57
61742;BME280;47650;49.848;9.620;2023-02-01T13:24:38;99834.66;;;7.26;57.82
61742;BME280;47650;49.848;9.620;2023-02-01T13:27:10;99842.31;;;7.75;56.78
61742;BME280;47650;49.848;9.620;2023-02-01T13:29:40;99820.25;;;7.19;57.47
61742;BME280;47650;49.848;9.620;2023-02-01T13:44:05;99808.13;;;6.94;57.43
61742;BME280;47650;49.848;9.620;2023-02-01T13:46:46;99780.22;;;6.91;57.15
61742;BME280;47650;49.848;9.620;2023-02-01T13:49:27;99849.91;;;7.34;57.18
61742;BME280;47650;49.848;9.620;2023-02-01T13:51:59;99841.56;;;8.06;56.20
61742;BME280;47650;49.848;9.620;2023-02-01T13:54:35;99791.91;;;6.76;56.96
61742;BME280;47650;49.848;9.620;2023-02-01T13:57:03;99848.53;;;7.06;57.36
61742;BME280;47650;49.848;9.620;2023-02-01T14:08:12;99843.41;;;7.15;57.70
61742;BME280;47650;49.848;9.620;2023-02-01T14:16:11;99862.19;;;7.00;58.28
61742;BME280;47650;49.848;9.620;2023-02-01T14:24:25;99843.75;;;7.22;57.86
61742;BME280;47650;49.848;9.620;2023-02-01T14:26:58;99838.97;;;7.39;56.96
61742;BME280;47650;49.848;9.620;2023-02-01T14:29:32;99843.25;;;7.06;57.73
61742;BME280;47650;49.848;9.620;2023-02-01T14:32:18;99849.78;;;7.36;57.85
61742;BME280;47650;49.848;9.620;2023-02-01T14:42:38;99839.34;;;7.79;56.54
61742;BME280;47650;49.848;9.620;2023-02-01T14:50:21;99853.81;;;7.17;58.12
61742;BME280;47650;49.848;9.620;2023-02-01T14:53:23;99842.81;;;7.34;57.67
61742;BME280;47650;49.848;9.620;2023-02-01T14:56:14;99811.81;;;6.80;59.03
61742;BME280;47650;49.848;9.620;2023-02-01T14:58:49;99790.59;;;6.70;59.28
61742;BME280;47650;49.848;9.620;2023-02-01T15:01:31;99825.75;;;7.16;59.02
61742;BME280;47650;49.848;9.620;2023-02-01T15:06:46;99820.75;;;7.13;58.61
61742;BME280;47650;49.848;9.620;2023-02-01T15:09:23;99755.13;;;6.63;58.95
61742;BME280;47650;49.848;9.620;2023-02-01T15:12:04;99638.50;;;6.03;58.78
61742;BME280;47650;49.848;9.620;2023-02-01T15:14:33;99824.00;;;7.39;57.76
61742;BME280;47650;49.848;9.620;2023-02-01T15:16:59;99815.66;;;6.87;58.84
61742;BME280;47650;49.848;9.620;2023-02-01T15:19:28;99804.16;;;6.88;58.64
61742;BME280;47650;49.848;9.620;2023-02-01T15:21:56;99822.56;;;7.24;58.36
61742;BME280;47650;49.848;9.620;2023-02-01T15:24:23;99811.88;;;7.25;57.88
61742;BME280;47650;49.848;9.620;2023-02-01T15:26:51;99722.31;;;6.67;58.15
61742;BME280;47650;49.848;9.620;2023-02-01T15:29:19;99801.63;;;6.87;58.20
61742;BME280;47650;49.848;9.620;2023-02-01T15:31:53;99761.00;;;6.78;58.35
61742;BME280;47650;49.848;9.620;2023-02-01T15:34:45;99792.34;;;7.17;58.05
61742;BME280;47650;49.848;9.620;2023-02-01T15:37:15;99808.28;;;7.26;57.47
61742;BME280;47650;49.848;9.620;2023-02-01T15:40:04;99803.97;;;7.48;57.19
61742;BME280;47650;49.848;9.620;2023-02-01T15:42:30;99825.66;;;7.18;57.85